sensor_id;sensor_type;location;lat;lon;timestamp;pressure;altitude;pressure_sealevel;temperature;humidity
71996;BME280;59862;47.732;7.346;2023-04-29T00:01:33;97877.39;;;14.36;97.86
71996;BME280;59862;47.732;7.346;2023-04-29T00:04:01;97879.45;;;14.41;97.65
71996;BME280;59862;47.732;7.346;2023-04-29T00:06:28;97875.41;;;14.41;97.34
71996;BME280;59862;47.732;7.346;2023-04-29T00:08:56;97876.77;;;14.41;97.16
71996;BME280;59862;47.732;7.346;2023-04-29T00:11:23;97879.36;;;14.32;97.36
71996;BME280;59862;47.732;7.346;2023-04-29T00:13:51;97874.80;;;14.32;97.52
71996;BME280;59862;47.732;7.346;2023-04-29T00:16:18;97878.34;;;14.33;97.62
71996;BME280;59862;47.732;7.346;2023-04-29T00:18:46;97876.74;;;14.28;97.67
71996;BME280;59862;47.732;7.346;2023-04-29T00:21:13;97878.74;;;14.30;97.79
71996;BME280;59862;47.732;7.346;2023-04-29T00:23:41;97876.45;;;14.27;97.90
71996;BME280;59862;47.732;7.346;2023-04-29T00:26:08;97876.13;;;14.26;97.99
71996;BME280;59862;47.732;7.346;2023-04-29T00:28:37;97875.52;;;14.24;98.17
71996;BME280;59862;47.732;7.346;2023-04-29T00:31:04;97874.48;;;14.25;98.37
71996;BME280;59862;47.732;7.346;2023-04-29T00:33:32;97871.14;;;14.23;98.42
71996;BME280;59862;47.732;7.346;2023-04-29T00:35:59;97871.25;;;14.19;98.47
71996;BME280;59862;47.732;7.346;2023-04-29T00:38:27;97873.03;;;14.16;98.77
71996;BME280;59862;47.732;7.346;2023-04-29T00:40:55;97871.58;;;14.20;98.85
71996;BME280;59862;47.732;7.346;2023-04-29T00:43:23;97871.88;;;14.14;99.02
71996;BME280;59862;47.732;7.346;2023-04-29T00:45:50;97876.87;;;14.11;99.29
71996;BME280;59862;47.732;7.346;2023-04-29T00:48:19;97872.31;;;14.11;99.54
71996;BME280;59862;47.732;7.346;2023-04-29T00:50:47;97878.84;;;14.13;99.74
71996;BME280;59862;47.732;7.346;2023-04-29T00:53:16;97873.44;;;14.13;99.83
71996;BME280;59862;47.732;7.346;2023-04-29T00:55:45;97868.77;;;14.11;99.84
71996;BME280;59862;47.732;7.346;2023-04-29T00:58:14;97872.92;;;14.13;99.83
71996;BME280;59862;47.732;7.346;2023-04-29T01:00:43;97872.09;;;14.13;99.77
71996;BME280;59862;47.732;7.346;2023-04-29T01:03:12;97870.45;;;14.12;99.65
71996;BME280;59862;47.732;7.346;2023-04-29T01:05:40;97870.95;;;14.11;99.51
71996;BME280;59862;47.732;7.346;2023-04-29T01:08:40;97867.53;;;14.13;99.38
71996;BME280;59862;47.732;7.346;2023-04-29T01:11:12;97874.79;;;14.13;99.14
71996;BME280;59862;47.732;7.346;2023-04-29T01:13:48;97869.61;;;14.18;98.83
71996;BME280;59862;47.732;7.346;2023-04-29T01:16:29;97870.34;;;14.16;98.52
71996;BME280;59862;47.732;7.346;2023-04-29T01:18:58;97863.59;;;14.16;98.15
71996;BME280;59862;47.732;7.346;2023-04-29T01:21:27;97869.28;;;14.17;97.75
71996;BME280;59862;47.732;7.346;2023-04-29T01:23:56;97857.14;;;14.17;97.56
71996;BME280;59862;47.732;7.346;2023-04-29T01:26:25;97855.28;;;14.11;97.48
71996;BME280;59862;47.732;7.346;2023-04-29T01:29:07;97854.95;;;14.10;97.50
71996;BME280;59862;47.732;7.346;2023-04-29T01:31:40;97852.81;;;14.03;97.60
71996;BME280;59862;47.732;7.346;2023-04-29T01:34:33;97851.64;;;14.01;97.77
71996;BME280;59862;47.732;7.346;2023-04-29T01:37:21;97852.70;;;13.87;98.13
71996;BME280;59862;47.732;7.346;2023-04-29T01:42:43;97841.59;;;13.80;98.60
71996;BME280;59862;47.732;7.346;2023-04-29T01:45:10;97841.08;;;13.80;98.79
71996;BME280;59862;47.732;7.346;2023-04-29T01:47:39;97846.91;;;13.77;98.82
71996;BME280;59862;47.732;7.346;2023-04-29T01:50:07;97844.94;;;13.75;98.87
71996;BME280;59862;47.732;7.346;2023-04-29T01:52:35;97851.56;;;13.73;98.90
71996;BME280;59862;47.732;7.346;2023-04-29T01:55:03;97851.97;;;13.69;98.97
71996;BME280;59862;47.732;7.346;2023-04-29T01:57:31;97854.55;;;13.67;99.10
71996;BME280;59862;47.732;7.346;2023-04-29T01:59:59;97851.67;;;13.68;99.20
71996;BME280;59862;47.732;7.346;2023-04-29T02:02:27;97853.72;;;13.66;99.35
71996;BME280;59862;47.732;7.346;2023-04-29T02:04:55;97851.45;;;13.63;99.54
71996;BME280;59862;47.732;7.346;2023-04-29T02:07:22;97851.23;;;13.65;99.70
71996;BME280;59862;47.732;7.346;2023-04-29T02:09:50;97842.42;;;13.67;99.68
71996;BME280;59862;47.732;7.346;2023-04-29T02:12:17;97839.61;;;13.64;99.60
71996;BME280;59862;47.732;7.346;2023-04-29T02:14:45;97847.52;;;13.66;99.58
71996;BME280;59862;47.732;7.346;2023-04-29T02:17:13;97850.50;;;13.60;99.60
71996;BME280;59862;47.732;7.346;2023-04-29T02:19:41;97851.55;;;13.59;99.71
71996;BME280;59862;47.732;7.346;2023-04-29T02:22:08;97855.27;;;13.58;99.74
71996;BME280;59862;47.732;7.346;2023-04-29T02:24:38;97847.69;;;13.58;99.86
71996;BME280;59862;47.732;7.346;2023-04-29T02:27:05;97853.92;;;13.58;99.84
71996;BME280;59862;47.732;7.346;2023-04-29T02:29:33;97856.11;;;13.59;99.73
71996;BME280;59862;47.732;7.346;2023-04-29T02:32:00;97849.26;;;13.56;99.66
71996;BME280;59862;47.732;7.346;2023-04-29T02:34:27;97856.42;;;13.53;99.72
71996;BME280;59862;47.732;7.346;2023-04-29T02:36:55;97858.19;;;13.57;99.76
71996;BME280;59862;47.732;7.346;2023-04-29T02:39:23;97854.03;;;13.54;99.70
71996;BME280;59862;47.732;7.346;2023-04-29T02:41:57;97847.28;;;13.54;99.65
71996;BME280;59862;47.732;7.346;2023-04-29T02:44:21;97844.59;;;13.54;99.65
71996;BME280;59862;47.732;7.346;2023-04-29T02:46:49;97845.21;;;13.56;99.59
71996;BME280;59862;47.732;7.346;2023-04-29T02:49:16;97853.41;;;13.52;99.47
71996;BME280;59862;47.732;7.346;2023-04-29T02:51:43;97846.66;;;13.52;99.37
71996;BME280;59862;47.732;7.346;2023-04-29T02:54:11;97849.03;;;13.51;99.24
71996;BME280;59862;47.732;7.346;2023-04-29T02:56:38;97849.69;;;13.53;99.16
71996;BME280;59862;47.732;7.346;2023-04-29T02:59:06;97851.11;;;13.49;99.05
71996;BME280;59862;47.732;7.346;2023-04-29T03:01:33;97845.09;;;13.47;99.01
71996;BME280;59862;47.732;7.346;2023-04-29T03:04:01;97846.55;;;13.43;99.08
71996;BME280;59862;47.732;7.346;2023-04-29T03:06:29;97843.13;;;13.45;99.17
71996;BME280;59862;47.732;7.346;2023-04-29T03:08:56;97843.01;;;13.43;99.15
71996;BME280;59862;47.732;7.346;2023-04-29T03:11:24;97848.61;;;13.41;99.04
71996;BME280;59862;47.732;7.346;2023-04-29T03:13:52;97847.59;;;13.42;99.01
71996;BME280;59862;47.732;7.346;2023-04-29T03:16:20;97841.77;;;13.39;98.84
71996;BME280;59862;47.732;7.346;2023-04-29T03:18:48;97844.56;;;13.35;98.68
71996;BME280;59862;47.732;7.346;2023-04-29T03:21:15;97839.50;;;13.36;98.67
71996;BME280;59862;47.732;7.346;2023-04-29T03:23:44;97846.94;;;13.27;98.62
71996;BME280;59862;47.732;7.346;2023-04-29T03:26:11;97836.16;;;13.27;98.77
71996;BME280;59862;47.732;7.346;2023-04-29T03:28:38;97832.73;;;13.23;98.81
71996;BME280;59862;47.732;7.346;2023-04-29T03:31:06;97825.16;;;13.22;98.90
71996;BME280;59862;47.732;7.346;2023-04-29T03:33:33;97824.93;;;13.17;98.91
71996;BME280;59862;47.732;7.346;2023-04-29T03:36:01;97823.08;;;13.18;98.93
71996;BME280;59862;47.732;7.346;2023-04-29T03:38:29;97830.52;;;13.09;99.01
71996;BME280;59862;47.732;7.346;2023-04-29T03:40:57;97831.45;;;13.06;99.18
71996;BME280;59862;47.732;7.346;2023-04-29T03:43:24;97834.09;;;12.99;99.33
71996;BME280;59862;47.732;7.346;2023-04-29T03:45:51;97832.20;;;13.00;99.42
71996;BME280;59862;47.732;7.346;2023-04-29T03:48:19;97834.16;;;12.95;99.49
71996;BME280;59862;47.732;7.346;2023-04-29T03:50:47;97837.66;;;12.89;99.70
71996;BME280;59862;47.732;7.346;2023-04-29T03:53:14;97846.79;;;12.88;99.86
71996;BME280;59862;47.732;7.346;2023-04-29T03:55:42;97851.31;;;12.81;100.00
71996;BME280;59862;47.732;7.346;2023-04-29T03:58:10;97855.68;;;12.82;100.00
71996;BME280;59862;47.732;7.346;2023-04-29T04:00:37;97858.38;;;12.82;100.00
71996;BME280;59862;47.732;7.346;2023-04-29T04:03:05;97856.27;;;12.77;100.00
71996;BME280;59862;47.732;7.346;2023-04-29T04:05:32;97857.80;;;12.76;100.00
71996;BME280;59862;47.732;7.346;2023-04-29T04:08:00;97860.20;;;12.75;100.00
71996;BME280;59862;47.732;7.346;2023-04-29T04:10:28;97857.38;;;12.72;100.00
71996;BME280;59862;47.732;7.346;2023-04-29T04:12:55;97858.31;;;12.69;100.00
71996;BME280;59862;47.732;7.346;2023-04-29T04:15:23;97859.33;;;12.68;100.00
71996;BME280;59862;47.732;7.346;2023-04-29T04:17:51;97859.20;;;12.65;100.00
71996;BME280;59862;47.732;7.346;2023-04-29T04:20:19;97857.20;;;12.57;100.00
71996;BME280;59862;47.732;7.346;2023-04-29T04:22:46;97862.38;;;12.58;100.00
71996;BME280;59862;47.732;7.346;2023-04-29T04:25:14;97853.48;;;12.58;100.00
71996;BME280;59862;47.732;7.346;2023-04-29T04:27:41;97859.89;;;12.57;100.00
71996;BME280;59862;47.732;7.346;2023-04-29T04:30:09;97861.95;;;12.55;100.00
71996;BME280;59862;47.732;7.346;2023-04-29T04:32:37;97860.61;;;12.55;100.00
71996;BME280;59862;47.732;7.346;2023-04-29T04:37:54;97865.03;;;12.52;100.00
71996;BME280;59862;47.732;7.346;2023-04-29T04:40:21;97867.54;;;12.53;100.00
71996;BME280;59862;47.732;7.346;2023-04-29T04:42:49;97862.66;;;12.53;100.00
71996;BME280;59862;47.732;7.346;2023-04-29T04:45:16;97867.33;;;12.55;100.00
71996;BME280;59862;47.732;7.346;2023-04-29T04:47:44;97874.30;;;12.60;100.00
71996;BME280;59862;47.732;7.346;2023-04-29T04:50:11;97872.25;;;12.62;100.00
71996;BME280;59862;47.732;7.346;2023-04-29T04:52:39;97881.67;;;12.62;100.00
71996;BME280;59862;47.732;7.346;2023-04-29T04:55:07;97882.38;;;12.60;100.00
71996;BME280;59862;47.732;7.346;2023-04-29T04:57:35;97887.89;;;12.62;100.00
71996;BME280;59862;47.732;7.346;2023-04-29T05:00:03;97895.67;;;12.68;100.00
71996;BME280;59862;47.732;7.346;2023-04-29T05:02:31;97900.55;;;12.68;100.00
71996;BME280;59862;47.732;7.346;2023-04-29T05:04:58;97897.77;;;12.72;100.00
71996;BME280;59862;47.732;7.346;2023-04-29T05:07:26;97902.23;;;12.76;100.00
71996;BME280;59862;47.732;7.346;2023-04-29T05:09:53;97911.27;;;12.79;100.00
71996;BME280;59862;47.732;7.346;2023-04-29T05:12:21;97906.33;;;12.89;100.00
71996;BME280;59862;47.732;7.346;2023-04-29T05:17:40;97906.81;;;12.99;100.00
71996;BME280;59862;47.732;7.346;2023-04-29T05:20:08;97907.73;;;13.02;100.00
71996;BME280;59862;47.732;7.346;2023-04-29T05:22:36;97918.39;;;13.10;99.92
71996;BME280;59862;47.732;7.346;2023-04-29T05:25:04;97918.53;;;13.26;99.71
71996;BME280;59862;47.732;7.346;2023-04-29T05:27:31;97922.67;;;13.22;99.04
71996;BME280;59862;47.732;7.346;2023-04-29T05:29:59;97921.83;;;13.21;98.41
71996;BME280;59862;47.732;7.346;2023-04-29T05:32:26;97923.80;;;13.23;97.85
71996;BME280;59862;47.732;7.346;2023-04-29T05:34:54;97921.67;;;13.29;97.38
71996;BME280;59862;47.732;7.346;2023-04-29T05:37:21;97917.86;;;13.41;97.06
71996;BME280;59862;47.732;7.346;2023-04-29T05:39:49;97918.20;;;13.48;96.51
71996;BME280;59862;47.732;7.346;2023-04-29T05:42:16;97922.66;;;13.52;95.75
71996;BME280;59862;47.732;7.346;2023-04-29T05:44:44;97923.39;;;13.56;94.91
71996;BME280;59862;47.732;7.346;2023-04-29T05:47:11;97922.06;;;13.63;94.32
71996;BME280;59862;47.732;7.346;2023-04-29T05:49:39;97929.23;;;13.80;93.95
71996;BME280;59862;47.732;7.346;2023-04-29T05:52:06;97933.11;;;13.88;93.21
71996;BME280;59862;47.732;7.346;2023-04-29T05:54:33;97932.17;;;13.98;92.28
71996;BME280;59862;47.732;7.346;2023-04-29T05:57:01;97934.77;;;14.02;91.14
71996;BME280;59862;47.732;7.346;2023-04-29T05:59:30;97942.25;;;14.13;90.43
71996;BME280;59862;47.732;7.346;2023-04-29T06:02:00;97943.20;;;14.22;89.95
71996;BME280;59862;47.732;7.346;2023-04-29T06:04:27;97939.77;;;14.24;89.50
71996;BME280;59862;47.732;7.346;2023-04-29T06:06:56;97942.17;;;14.30;88.74
71996;BME280;59862;47.732;7.346;2023-04-29T06:09:24;97952.05;;;14.40;88.65
71996;BME280;59862;47.732;7.346;2023-04-29T06:11:52;97954.53;;;14.48;87.67
71996;BME280;59862;47.732;7.346;2023-04-29T06:14:20;97956.16;;;14.62;87.40
71996;BME280;59862;47.732;7.346;2023-04-29T06:16:48;97958.35;;;14.63;86.27
71996;BME280;59862;47.732;7.346;2023-04-29T06:19:15;97957.52;;;14.56;85.74
71996;BME280;59862;47.732;7.346;2023-04-29T06:21:43;97960.22;;;14.62;86.04
71996;BME280;59862;47.732;7.346;2023-04-29T06:24:10;97969.16;;;14.50;84.59
71996;BME280;59862;47.732;7.346;2023-04-29T06:26:38;97969.38;;;14.55;85.03
71996;BME280;59862;47.732;7.346;2023-04-29T06:29:05;97975.63;;;14.42;84.02
71996;BME280;59862;47.732;7.346;2023-04-29T06:31:33;97972.92;;;14.29;84.46
71996;BME280;59862;47.732;7.346;2023-04-29T06:34:01;97974.45;;;14.40;85.94
71996;BME280;59862;47.732;7.346;2023-04-29T06:36:28;97984.02;;;14.56;86.08
71996;BME280;59862;47.732;7.346;2023-04-29T06:38:55;97973.81;;;14.71;85.91
71996;BME280;59862;47.732;7.346;2023-04-29T06:41:23;97979.52;;;14.85;85.36
71996;BME280;59862;47.732;7.346;2023-04-29T06:43:50;97977.34;;;14.78;84.26
71996;BME280;59862;47.732;7.346;2023-04-29T06:46:18;97983.66;;;14.81;83.73
71996;BME280;59862;47.732;7.346;2023-04-29T06:48:45;97987.29;;;14.91;83.93
71996;BME280;59862;47.732;7.346;2023-04-29T06:51:13;97986.88;;;14.94;83.56
71996;BME280;59862;47.732;7.346;2023-04-29T06:53:41;97994.25;;;14.96;82.49
71996;BME280;59862;47.732;7.346;2023-04-29T06:56:09;97995.38;;;14.97;82.41
71996;BME280;59862;47.732;7.346;2023-04-29T06:58:36;97997.84;;;15.05;82.79
71996;BME280;59862;47.732;7.346;2023-04-29T07:01:04;98001.34;;;15.26;82.72
71996;BME280;59862;47.732;7.346;2023-04-29T07:03:32;98013.73;;;15.53;82.50
71996;BME280;59862;47.732;7.346;2023-04-29T07:06:00;98011.84;;;15.60;81.35
71996;BME280;59862;47.732;7.346;2023-04-29T07:08:27;98017.65;;;15.70;80.88
71996;BME280;59862;47.732;7.346;2023-04-29T07:10:56;98016.65;;;15.80;80.12
71996;BME280;59862;47.732;7.346;2023-04-29T07:13:24;98023.09;;;15.79;80.06
71996;BME280;59862;47.732;7.346;2023-04-29T07:15:52;98023.87;;;15.42;81.14
71996;BME280;59862;47.732;7.346;2023-04-29T07:18:20;98032.48;;;14.93;82.39
71996;BME280;59862;47.732;7.346;2023-04-29T07:20:47;98037.62;;;14.66;83.42
71996;BME280;59862;47.732;7.346;2023-04-29T07:23:17;98035.83;;;14.42;83.77
71996;BME280;59862;47.732;7.346;2023-04-29T07:25:44;98038.12;;;14.39;83.04
71996;BME280;59862;47.732;7.346;2023-04-29T07:28:12;98043.39;;;14.30;82.78
71996;BME280;59862;47.732;7.346;2023-04-29T07:30:39;98043.75;;;14.07;82.14
71996;BME280;59862;47.732;7.346;2023-04-29T07:33:07;98040.54;;;14.21;82.55
71996;BME280;59862;47.732;7.346;2023-04-29T07:35:35;98042.73;;;14.28;82.10
71996;BME280;59862;47.732;7.346;2023-04-29T07:38:02;98044.36;;;14.46;81.44
71996;BME280;59862;47.732;7.346;2023-04-29T07:40:30;98049.14;;;14.51;79.52
71996;BME280;59862;47.732;7.346;2023-04-29T07:42:58;98046.84;;;14.48;77.83
71996;BME280;59862;47.732;7.346;2023-04-29T07:45:27;98046.95;;;14.76;77.05
71996;BME280;59862;47.732;7.346;2023-04-29T07:47:55;98050.26;;;15.04;77.28
71996;BME280;59862;47.732;7.346;2023-04-29T07:50:22;98056.90;;;15.08;75.63
71996;BME280;59862;47.732;7.346;2023-04-29T07:52:49;98056.56;;;15.14;74.42
71996;BME280;59862;47.732;7.346;2023-04-29T07:55:17;98055.20;;;15.20;74.38
71996;BME280;59862;47.732;7.346;2023-04-29T07:57:44;98055.33;;;15.65;73.59
71996;BME280;59862;47.732;7.346;2023-04-29T08:00:12;98060.11;;;15.91;71.45
71996;BME280;59862;47.732;7.346;2023-04-29T08:02:39;98059.46;;;16.12;70.94
71996;BME280;59862;47.732;7.346;2023-04-29T08:05:09;98063.48;;;16.18;69.51
71996;BME280;59862;47.732;7.346;2023-04-29T08:07:36;98061.25;;;16.24;70.90
71996;BME280;59862;47.732;7.346;2023-04-29T08:10:04;98067.38;;;16.44;69.87
71996;BME280;59862;47.732;7.346;2023-04-29T08:12:31;98061.54;;;16.47;68.55
71996;BME280;59862;47.732;7.346;2023-04-29T08:14:59;98057.73;;;16.71;68.09
71996;BME280;59862;47.732;7.346;2023-04-29T08:17:27;98067.73;;;17.10;66.99
71996;BME280;59862;47.732;7.346;2023-04-29T08:19:54;98068.27;;;17.19;66.32
71996;BME280;59862;47.732;7.346;2023-04-29T08:22:22;98065.70;;;17.24;67.52
71996;BME280;59862;47.732;7.346;2023-04-29T08:24:49;98065.11;;;17.31;66.54
71996;BME280;59862;47.732;7.346;2023-04-29T08:27:17;98076.73;;;17.38;67.01
71996;BME280;59862;47.732;7.346;2023-04-29T08:29:46;98071.19;;;17.51;67.64
71996;BME280;59862;47.732;7.346;2023-04-29T08:32:14;98064.55;;;17.65;67.15
71996;BME280;59862;47.732;7.346;2023-04-29T08:34:41;98066.73;;;17.66;65.81
71996;BME280;59862;47.732;7.346;2023-04-29T08:37:10;98064.86;;;17.66;64.72
71996;BME280;59862;47.732;7.346;2023-04-29T08:39:37;98070.45;;;17.71;66.24
71996;BME280;59862;47.732;7.346;2023-04-29T08:42:09;98059.20;;;17.68;64.52
71996;BME280;59862;47.732;7.346;2023-04-29T08:44:39;98060.03;;;17.86;64.31
71996;BME280;59862;47.732;7.346;2023-04-29T08:47:08;98063.27;;;18.25;64.18
71996;BME280;59862;47.732;7.346;2023-04-29T08:49:36;98057.84;;;18.75;62.92
71996;BME280;59862;47.732;7.346;2023-04-29T08:52:03;98054.38;;;19.00;62.12
71996;BME280;59862;47.732;7.346;2023-04-29T08:54:31;98059.45;;;19.08;59.61
71996;BME280;59862;47.732;7.346;2023-04-29T08:56:59;98059.01;;;19.23;60.54
71996;BME280;59862;47.732;7.346;2023-04-29T08:59:28;98060.25;;;19.52;59.46
71996;BME280;59862;47.732;7.346;2023-04-29T09:01:57;98064.55;;;19.62;59.00
71996;BME280;59862;47.732;7.346;2023-04-29T09:07:20;98061.11;;;18.98;60.37
71996;BME280;59862;47.732;7.346;2023-04-29T09:09:48;98067.84;;;18.51;60.28
71996;BME280;59862;47.732;7.346;2023-04-29T09:12:17;98063.61;;;18.99;61.17
71996;BME280;59862;47.732;7.346;2023-04-29T09:14:45;98065.98;;;19.07;59.23
71996;BME280;59862;47.732;7.346;2023-04-29T09:17:12;98064.63;;;19.19;58.86
71996;BME280;59862;47.732;7.346;2023-04-29T09:19:42;98065.52;;;19.56;58.21
71996;BME280;59862;47.732;7.346;2023-04-29T09:22:10;98060.75;;;20.01;57.45
71996;BME280;59862;47.732;7.346;2023-04-29T09:24:38;98056.17;;;19.52;56.88
71996;BME280;59862;47.732;7.346;2023-04-29T09:27:05;98057.66;;;19.57;58.87
71996;BME280;59862;47.732;7.346;2023-04-29T09:29:34;98055.95;;;19.42;58.00
71996;BME280;59862;47.732;7.346;2023-04-29T09:32:20;98057.80;;;19.77;58.88
71996;BME280;59862;47.732;7.346;2023-04-29T09:34:47;98054.30;;;19.93;57.14
71996;BME280;59862;47.732;7.346;2023-04-29T09:37:26;98052.38;;;20.05;57.21
71996;BME280;59862;47.732;7.346;2023-04-29T09:39:51;98046.06;;;20.16;56.28
71996;BME280;59862;47.732;7.346;2023-04-29T09:42:19;98047.98;;;20.44;55.70
71996;BME280;59862;47.732;7.346;2023-04-29T09:44:46;98035.71;;;20.44;55.58
71996;BME280;59862;47.732;7.346;2023-04-29T09:47:14;98044.42;;;21.04;54.83
71996;BME280;59862;47.732;7.346;2023-04-29T09:49:43;98047.39;;;22.20;52.41
71996;BME280;59862;47.732;7.346;2023-04-29T09:52:15;98046.50;;;22.92;50.79
71996;BME280;59862;47.732;7.346;2023-04-29T09:54:44;98040.83;;;23.35;47.08
71996;BME280;59862;47.732;7.346;2023-04-29T09:57:12;98038.30;;;24.28;45.85
71996;BME280;59862;47.732;7.346;2023-04-29T09:59:42;98043.92;;;25.03;44.19
71996;BME280;59862;47.732;7.346;2023-04-29T10:02:18;98043.25;;;24.41;44.77
71996;BME280;59862;47.732;7.346;2023-04-29T10:04:46;98039.34;;;23.60;45.92
71996;BME280;59862;47.732;7.346;2023-04-29T10:07:15;98034.37;;;24.08;46.72
71996;BME280;59862;47.732;7.346;2023-04-29T10:09:45;98036.78;;;25.07;44.25
71996;BME280;59862;47.732;7.346;2023-04-29T10:12:18;98034.56;;;25.19;41.63
71996;BME280;59862;47.732;7.346;2023-04-29T10:15:00;98032.66;;;24.79;43.29
71996;BME280;59862;47.732;7.346;2023-04-29T10:17:43;98032.55;;;24.39;43.85
71996;BME280;59862;47.732;7.346;2023-04-29T10:20:22;98030.09;;;24.48;43.58
71996;BME280;59862;47.732;7.346;2023-04-29T10:22:52;98025.52;;;24.81;45.74
71996;BME280;59862;47.732;7.346;2023-04-29T10:25:26;98036.48;;;25.19;45.21
71996;BME280;59862;47.732;7.346;2023-04-29T10:27:55;98030.42;;;24.66;44.35
71996;BME280;59862;47.732;7.346;2023-04-29T10:30:25;98032.80;;;24.30;44.76
71996;BME280;59862;47.732;7.346;2023-04-29T10:32:54;98040.55;;;25.72;42.59
71996;BME280;59862;47.732;7.346;2023-04-29T10:35:22;98033.17;;;25.37;42.17
71996;BME280;59862;47.732;7.346;2023-04-29T10:37:51;98043.45;;;26.13;40.64
71996;BME280;59862;47.732;7.346;2023-04-29T10:40:26;98026.34;;;24.79;42.77
71996;BME280;59862;47.732;7.346;2023-04-29T10:42:54;98022.95;;;24.39;44.72
71996;BME280;59862;47.732;7.346;2023-04-29T10:45:31;98023.80;;;23.73;44.42
71996;BME280;59862;47.732;7.346;2023-04-29T10:53:18;98029.88;;;25.37;42.48
71996;BME280;59862;47.732;7.346;2023-04-29T10:55:52;98031.95;;;25.91;43.39
71996;BME280;59862;47.732;7.346;2023-04-29T10:58:44;98030.16;;;25.33;42.81
71996;BME280;59862;47.732;7.346;2023-04-29T11:01:14;98026.55;;;23.80;43.27
71996;BME280;59862;47.732;7.346;2023-04-29T11:03:53;98024.33;;;23.72;44.65
71996;BME280;59862;47.732;7.346;2023-04-29T11:06:37;98015.34;;;23.87;44.47
71996;BME280;59862;47.732;7.346;2023-04-29T11:09:08;98025.06;;;25.96;42.14
71996;BME280;59862;47.732;7.346;2023-04-29T11:14:12;98021.89;;;25.64;42.02
71996;BME280;59862;47.732;7.346;2023-04-29T11:16:51;98023.02;;;25.52;40.33
71996;BME280;59862;47.732;7.346;2023-04-29T11:19:17;98015.83;;;24.43;41.45
71996;BME280;59862;47.732;7.346;2023-04-29T11:21:45;98017.48;;;25.60;40.52
71996;BME280;59862;47.732;7.346;2023-04-29T11:24:13;98017.50;;;26.75;38.83
71996;BME280;59862;47.732;7.346;2023-04-29T11:26:42;98023.84;;;26.68;37.91
71996;BME280;59862;47.732;7.346;2023-04-29T11:29:09;98020.83;;;26.23;39.93
71996;BME280;59862;47.732;7.346;2023-04-29T11:31:37;98017.22;;;26.33;39.03
71996;BME280;59862;47.732;7.346;2023-04-29T11:34:05;98013.70;;;27.62;38.58
71996;BME280;59862;47.732;7.346;2023-04-29T11:36:33;98015.88;;;28.90;35.21
71996;BME280;59862;47.732;7.346;2023-04-29T11:39:03;98013.58;;;29.45;34.44
71996;BME280;59862;47.732;7.346;2023-04-29T11:41:30;98015.28;;;28.56;35.17
71996;BME280;59862;47.732;7.346;2023-04-29T11:43:59;98010.97;;;29.03;35.50
71996;BME280;59862;47.732;7.346;2023-04-29T11:46:30;98013.42;;;29.23;34.54
71996;BME280;59862;47.732;7.346;2023-04-29T11:48:58;98015.79;;;29.59;33.45
71996;BME280;59862;47.732;7.346;2023-04-29T11:51:26;98006.17;;;29.86;32.99
71996;BME280;59862;47.732;7.346;2023-04-29T11:53:55;98012.14;;;29.91;33.80
71996;BME280;59862;47.732;7.346;2023-04-29T11:56:23;98008.51;;;30.34;32.41
71996;BME280;59862;47.732;7.346;2023-04-29T11:58:55;98010.72;;;30.45;32.51
71996;BME280;59862;47.732;7.346;2023-04-29T12:01:25;98006.20;;;30.49;32.09
71996;BME280;59862;47.732;7.346;2023-04-29T12:03:57;98013.06;;;30.52;32.58
71996;BME280;59862;47.732;7.346;2023-04-29T12:06:29;98004.30;;;29.95;32.10
71996;BME280;59862;47.732;7.346;2023-04-29T12:08:58;98008.67;;;29.69;32.79
71996;BME280;59862;47.732;7.346;2023-04-29T12:11:26;98010.20;;;29.91;31.75
71996;BME280;59862;47.732;7.346;2023-04-29T12:13:55;98002.94;;;29.66;33.14
71996;BME280;59862;47.732;7.346;2023-04-29T12:16:22;98002.92;;;29.52;34.76
71996;BME280;59862;47.732;7.346;2023-04-29T12:18:51;98003.91;;;29.29;32.54
71996;BME280;59862;47.732;7.346;2023-04-29T12:21:21;97993.80;;;29.38;33.48
71996;BME280;59862;47.732;7.346;2023-04-29T12:23:50;97998.80;;;30.69;31.00
71996;BME280;59862;47.732;7.346;2023-04-29T12:26:18;97998.11;;;31.94;29.09
71996;BME280;59862;47.732;7.346;2023-04-29T12:28:52;98003.00;;;31.97;28.91
71996;BME280;59862;47.732;7.346;2023-04-29T12:31:20;98000.14;;;32.28;29.51
71996;BME280;59862;47.732;7.346;2023-04-29T12:33:52;97999.61;;;30.59;30.48
71996;BME280;59862;47.732;7.346;2023-04-29T12:36:20;97989.10;;;29.22;33.46
71996;BME280;59862;47.732;7.346;2023-04-29T12:38:49;97982.39;;;29.10;33.48
71996;BME280;59862;47.732;7.346;2023-04-29T12:41:18;97990.23;;;27.89;35.95
71996;BME280;59862;47.732;7.346;2023-04-29T12:43:48;97989.34;;;25.88;38.44
71996;BME280;59862;47.732;7.346;2023-04-29T12:46:16;97991.16;;;25.21;39.21
71996;BME280;59862;47.732;7.346;2023-04-29T12:48:46;97987.00;;;25.41;39.99
71996;BME280;59862;47.732;7.346;2023-04-29T12:51:15;97985.62;;;25.56;39.45
71996;BME280;59862;47.732;7.346;2023-04-29T12:53:43;97978.72;;;24.10;40.78
71996;BME280;59862;47.732;7.346;2023-04-29T12:56:11;97974.14;;;23.15;43.35
71996;BME280;59862;47.732;7.346;2023-04-29T12:58:39;97974.65;;;22.43;45.42
71996;BME280;59862;47.732;7.346;2023-04-29T13:01:07;97972.63;;;22.07;47.11
71996;BME280;59862;47.732;7.346;2023-04-29T13:03:35;97976.50;;;21.68;48.58
71996;BME280;59862;47.732;7.346;2023-04-29T13:06:02;97979.16;;;21.60;47.83
71996;BME280;59862;47.732;7.346;2023-04-29T13:08:30;97975.36;;;21.64;48.39
71996;BME280;59862;47.732;7.346;2023-04-29T13:10:57;97974.81;;;21.83;48.29
71996;BME280;59862;47.732;7.346;2023-04-29T13:13:25;97977.52;;;22.05;47.91
71996;BME280;59862;47.732;7.346;2023-04-29T13:15:52;97974.37;;;22.45;46.47
71996;BME280;59862;47.732;7.346;2023-04-29T13:18:20;97975.48;;;22.17;46.97
71996;BME280;59862;47.732;7.346;2023-04-29T13:20:47;97976.08;;;22.24;48.00
71996;BME280;59862;47.732;7.346;2023-04-29T13:23:15;97968.38;;;22.45;47.18
71996;BME280;59862;47.732;7.346;2023-04-29T13:25:42;97971.38;;;24.41;43.69
71996;BME280;59862;47.732;7.346;2023-04-29T13:28:10;97980.45;;;25.12;41.31